sensor_id;sensor_type;location;lat;lon;timestamp;pressure;altitude;pressure_sealevel;temperature;humidity
85151;BME280;75514;43.422;-80.500;2024-01-06T00:00:40;98026.06;;;21.02;14.59
85151;BME280;75514;43.422;-80.500;2024-01-06T00:03:06;98026.62;;;21.20;14.63
85151;BME280;75514;43.422;-80.500;2024-01-06T00:05:32;98028.74;;;21.23;14.60
85151;BME280;75514;43.422;-80.500;2024-01-06T00:07:58;98030.56;;;21.09;14.56
85151;BME280;75514;43.422;-80.500;2024-01-06T00:10:23;98032.41;;;21.32;14.58
85151;BME280;75514;43.422;-80.500;2024-01-06T00:12:49;98014.87;;;21.54;14.58
85151;BME280;75514;43.422;-80.500;2024-01-06T00:15:15;98011.89;;;21.23;14.63
85151;BME280;75514;43.422;-80.500;2024-01-06T00:17:41;98003.68;;;21.20;14.63
85151;BME280;75514;43.422;-80.500;2024-01-06T00:20:07;97999.69;;;21.03;14.79
85151;BME280;75514;43.422;-80.500;2024-01-06T00:22:32;98002.01;;;21.11;14.94
85151;BME280;75514;43.422;-80.500;2024-01-06T00:24:58;98004.89;;;21.18;15.13
85151;BME280;75514;43.422;-80.500;2024-01-06T00:27:23;98023.96;;;21.02;15.16
85151;BME280;75514;43.422;-80.500;2024-01-06T00:29:49;98033.41;;;21.07;15.59
85151;BME280;75514;43.422;-80.500;2024-01-06T00:32:15;98035.55;;;21.21;15.86
85151;BME280;75514;43.422;-80.500;2024-01-06T00:34:41;98023.20;;;21.09;16.53
85151;BME280;75514;43.422;-80.500;2024-01-06T00:37:06;98022.58;;;20.92;16.07
85151;BME280;75514;43.422;-80.500;2024-01-06T00:39:32;98031.11;;;21.12;15.90
85151;BME280;75514;43.422;-80.500;2024-01-06T00:41:58;98034.30;;;21.23;16.12
85151;BME280;75514;43.422;-80.500;2024-01-06T00:44:24;98032.25;;;21.27;16.31
85151;BME280;75514;43.422;-80.500;2024-01-06T00:46:49;98015.70;;;21.43;16.39
85151;BME280;75514;43.422;-80.500;2024-01-06T00:49:15;98006.92;;;21.09;16.18
85151;BME280;75514;43.422;-80.500;2024-01-06T00:51:41;98008.51;;;21.54;16.37
85151;BME280;75514;43.422;-80.500;2024-01-06T00:54:06;98012.11;;;21.27;16.57
85151;BME280;75514;43.422;-80.500;2024-01-06T00:56:32;97996.38;;;21.29;16.63
85151;BME280;75514;43.422;-80.500;2024-01-06T00:58:58;97993.87;;;21.32;16.53
85151;BME280;75514;43.422;-80.500;2024-01-06T01:01:24;97995.78;;;21.16;16.36
85151;BME280;75514;43.422;-80.500;2024-01-06T01:03:49;97990.72;;;21.24;16.46
85151;BME280;75514;43.422;-80.500;2024-01-06T01:06:15;97989.82;;;20.91;16.74
85151;BME280;75514;43.422;-80.500;2024-01-06T01:08:41;97986.17;;;21.32;16.47
85151;BME280;75514;43.422;-80.500;2024-01-06T01:11:07;97978.60;;;21.00;16.70
85151;BME280;75514;43.422;-80.500;2024-01-06T01:13:32;97976.96;;;21.37;16.79
85151;BME280;75514;43.422;-80.500;2024-01-06T01:15:58;97963.41;;;20.98;17.14
85151;BME280;75514;43.422;-80.500;2024-01-06T01:18:24;97957.91;;;21.39;17.02
85151;BME280;75514;43.422;-80.500;2024-01-06T01:20:49;97952.82;;;21.45;16.88
85151;BME280;75514;43.422;-80.500;2024-01-06T01:23:15;97937.20;;;21.55;16.75
85151;BME280;75514;43.422;-80.500;2024-01-06T01:25:41;97936.15;;;21.49;16.88
85151;BME280;75514;43.422;-80.500;2024-01-06T01:28:07;97928.05;;;21.25;16.91
85151;BME280;75514;43.422;-80.500;2024-01-06T01:30:32;97918.23;;;21.53;17.00
85151;BME280;75514;43.422;-80.500;2024-01-06T01:32:58;97921.37;;;21.64;17.09
85151;BME280;75514;43.422;-80.500;2024-01-06T01:35:24;97916.55;;;21.34;17.07
85151;BME280;75514;43.422;-80.500;2024-01-06T01:37:49;97913.75;;;21.64;16.95
85151;BME280;75514;43.422;-80.500;2024-01-06T01:40:15;97911.76;;;21.14;17.18
85151;BME280;75514;43.422;-80.500;2024-01-06T01:42:42;97914.89;;;21.59;17.08
85151;BME280;75514;43.422;-80.500;2024-01-06T01:45:07;97917.34;;;21.60;17.24
85151;BME280;75514;43.422;-80.500;2024-01-06T01:47:32;97921.14;;;21.55;17.28
85151;BME280;75514;43.422;-80.500;2024-01-06T01:49:58;97922.71;;;21.63;17.43
85151;BME280;75514;43.422;-80.500;2024-01-06T01:52:24;97924.11;;;21.44;17.44
85151;BME280;75514;43.422;-80.500;2024-01-06T01:54:51;97927.38;;;21.38;17.59
85151;BME280;75514;43.422;-80.500;2024-01-06T01:57:15;97925.32;;;21.42;17.33
85151;BME280;75514;43.422;-80.500;2024-01-06T01:59:42;97925.54;;;21.45;17.16
85151;BME280;75514;43.422;-80.500;2024-01-06T02:02:08;97928.61;;;21.53;17.95
85151;BME280;75514;43.422;-80.500;2024-01-06T02:04:33;97930.93;;;21.34;17.81
85151;BME280;75514;43.422;-80.500;2024-01-06T02:06:59;97931.18;;;21.40;17.72
85151;BME280;75514;43.422;-80.500;2024-01-06T02:09:24;97932.89;;;21.41;17.61
85151;BME280;75514;43.422;-80.500;2024-01-06T02:11:50;97937.19;;;21.45;17.60
85151;BME280;75514;43.422;-80.500;2024-01-06T02:14:16;97938.35;;;21.72;17.72
85151;BME280;75514;43.422;-80.500;2024-01-06T02:16:41;97943.15;;;21.26;17.78
85151;BME280;75514;43.422;-80.500;2024-01-06T02:19:09;97948.41;;;21.67;17.84
85151;BME280;75514;43.422;-80.500;2024-01-06T02:21:34;97953.85;;;21.35;17.89
85151;BME280;75514;43.422;-80.500;2024-01-06T02:23:59;97956.38;;;21.72;16.99
85151;BME280;75514;43.422;-80.500;2024-01-06T02:26:24;97959.32;;;21.45;17.22
85151;BME280;75514;43.422;-80.500;2024-01-06T02:28:50;97962.85;;;21.61;17.01
85151;BME280;75514;43.422;-80.500;2024-01-06T02:31:15;97961.34;;;21.66;17.47
85151;BME280;75514;43.422;-80.500;2024-01-06T02:33:41;97958.07;;;21.66;17.92
85151;BME280;75514;43.422;-80.500;2024-01-06T02:36:07;97949.47;;;21.41;18.15
85151;BME280;75514;43.422;-80.500;2024-01-06T02:38:33;97949.92;;;21.28;18.06
85151;BME280;75514;43.422;-80.500;2024-01-06T02:40:58;97960.86;;;21.34;18.21
85151;BME280;75514;43.422;-80.500;2024-01-06T02:43:24;97954.51;;;21.16;19.53
85151;BME280;75514;43.422;-80.500;2024-01-06T02:45:50;97944.89;;;21.50;18.92
85151;BME280;75514;43.422;-80.500;2024-01-06T02:48:16;97949.11;;;21.47;18.71
85151;BME280;75514;43.422;-80.500;2024-01-06T02:50:41;97936.61;;;21.40;17.99
85151;BME280;75514;43.422;-80.500;2024-01-06T02:53:07;97930.69;;;21.77;18.12
85151;BME280;75514;43.422;-80.500;2024-01-06T02:55:33;97916.90;;;21.45;18.39
85151;BME280;75514;43.422;-80.500;2024-01-06T02:57:58;97911.31;;;21.32;18.39
85151;BME280;75514;43.422;-80.500;2024-01-06T03:00:24;97913.57;;;21.78;18.66
85151;BME280;75514;43.422;-80.500;2024-01-06T03:02:50;97909.86;;;21.59;18.48
85151;BME280;75514;43.422;-80.500;2024-01-06T03:05:16;97902.69;;;21.83;18.36
85151;BME280;75514;43.422;-80.500;2024-01-06T03:07:41;97893.45;;;21.88;18.36
85151;BME280;75514;43.422;-80.500;2024-01-06T03:10:07;97886.73;;;21.35;18.26
85151;BME280;75514;43.422;-80.500;2024-01-06T03:12:33;97885.37;;;21.41;18.14
85151;BME280;75514;43.422;-80.500;2024-01-06T03:14:59;97883.03;;;21.60;18.28
85151;BME280;75514;43.422;-80.500;2024-01-06T03:17:24;97877.01;;;21.67;18.22
85151;BME280;75514;43.422;-80.500;2024-01-06T03:19:50;97874.17;;;21.36;18.19
85151;BME280;75514;43.422;-80.500;2024-01-06T03:22:15;97865.05;;;21.84;18.11
85151;BME280;75514;43.422;-80.500;2024-01-06T03:24:41;97858.36;;;21.53;17.97
85151;BME280;75514;43.422;-80.500;2024-01-06T03:27:07;97862.45;;;21.77;18.08
85151;BME280;75514;43.422;-80.500;2024-01-06T03:29:33;97861.35;;;21.36;17.95
85151;BME280;75514;43.422;-80.500;2024-01-06T03:31:58;97857.29;;;21.59;17.80
85151;BME280;75514;43.422;-80.500;2024-01-06T03:34:24;97848.68;;;21.50;17.87
85151;BME280;75514;43.422;-80.500;2024-01-06T03:36:50;97839.30;;;21.51;17.78
85151;BME280;75514;43.422;-80.500;2024-01-06T03:39:15;97830.25;;;21.36;17.77
85151;BME280;75514;43.422;-80.500;2024-01-06T03:41:41;97826.21;;;21.98;17.80
85151;BME280;75514;43.422;-80.500;2024-01-06T03:44:07;97816.16;;;21.75;18.10
85151;BME280;75514;43.422;-80.500;2024-01-06T03:46:34;97805.59;;;21.77;18.08
85151;BME280;75514;43.422;-80.500;2024-01-06T03:48:58;97796.64;;;21.73;18.03
85151;BME280;75514;43.422;-80.500;2024-01-06T03:51:24;97787.39;;;21.69;18.14
85151;BME280;75514;43.422;-80.500;2024-01-06T03:53:49;97779.64;;;21.33;18.25
85151;BME280;75514;43.422;-80.500;2024-01-06T03:56:15;97771.71;;;21.54;18.29
85151;BME280;75514;43.422;-80.500;2024-01-06T03:58:41;97765.21;;;21.27;18.37
85151;BME280;75514;43.422;-80.500;2024-01-06T04:01:07;97758.37;;;21.52;18.25
85151;BME280;75514;43.422;-80.500;2024-01-06T04:03:32;97756.95;;;21.49;18.29
85151;BME280;75514;43.422;-80.500;2024-01-06T04:06:02;97754.24;;;21.40;18.34
85151;BME280;75514;43.422;-80.500;2024-01-06T04:08:24;97757.97;;;21.08;18.36
85151;BME280;75514;43.422;-80.500;2024-01-06T04:10:49;97768.56;;;21.39;18.28
85151;BME280;75514;43.422;-80.500;2024-01-06T04:13:16;97769.62;;;21.54;18.10
85151;BME280;75514;43.422;-80.500;2024-01-06T04:15:41;97767.63;;;21.91;17.95
85151;BME280;75514;43.422;-80.500;2024-01-06T04:18:07;97767.60;;;21.63;17.81
85151;BME280;75514;43.422;-80.500;2024-01-06T04:20:33;97764.50;;;21.48;17.84
85151;BME280;75514;43.422;-80.500;2024-01-06T04:22:58;97761.76;;;21.66;17.70
85151;BME280;75514;43.422;-80.500;2024-01-06T04:25:24;97756.94;;;21.64;17.80
85151;BME280;75514;43.422;-80.500;2024-01-06T04:27:49;97759.59;;;21.65;17.84
85151;BME280;75514;43.422;-80.500;2024-01-06T04:30:16;97763.63;;;21.59;17.94
85151;BME280;75514;43.422;-80.500;2024-01-06T04:32:41;97761.68;;;21.36;18.02
85151;BME280;75514;43.422;-80.500;2024-01-06T04:35:07;97765.15;;;21.49;18.13
85151;BME280;75514;43.422;-80.500;2024-01-06T04:37:32;97768.29;;;21.33;18.13
85151;BME280;75514;43.422;-80.500;2024-01-06T04:39:58;97760.85;;;21.52;18.19
85151;BME280;75514;43.422;-80.500;2024-01-06T04:42:24;97761.72;;;21.59;18.11
85151;BME280;75514;43.422;-80.500;2024-01-06T04:44:50;97764.75;;;21.86;18.08
85151;BME280;75514;43.422;-80.500;2024-01-06T04:47:15;97768.28;;;21.58;18.11
85151;BME280;75514;43.422;-80.500;2024-01-06T04:49:41;97770.24;;;21.30;18.14
85151;BME280;75514;43.422;-80.500;2024-01-06T04:52:07;97777.98;;;21.62;18.09
85151;BME280;75514;43.422;-80.500;2024-01-06T04:54:32;97785.34;;;21.62;18.07
85151;BME280;75514;43.422;-80.500;2024-01-06T04:56:59;97784.17;;;21.52;18.12
85151;BME280;75514;43.422;-80.500;2024-01-06T04:59:24;97786.08;;;21.58;18.09
85151;BME280;75514;43.422;-80.500;2024-01-06T05:01:50;97789.03;;;21.58;18.09
85151;BME280;75514;43.422;-80.500;2024-01-06T05:04:15;97787.54;;;21.39;18.03
85151;BME280;75514;43.422;-80.500;2024-01-06T05:06:41;97793.99;;;21.70;17.93
85151;BME280;75514;43.422;-80.500;2024-01-06T05:09:07;97797.87;;;21.59;18.02
85151;BME280;75514;43.422;-80.500;2024-01-06T05:11:32;97797.45;;;21.89;17.94
85151;BME280;75514;43.422;-80.500;2024-01-06T05:13:58;97796.40;;;21.57;18.01
85151;BME280;75514;43.422;-80.500;2024-01-06T05:16:23;97802.84;;;21.59;18.02
85151;BME280;75514;43.422;-80.500;2024-01-06T05:18:49;97810.48;;;21.59;18.02
85151;BME280;75514;43.422;-80.500;2024-01-06T05:21:15;97818.92;;;21.66;17.95
85151;BME280;75514;43.422;-80.500;2024-01-06T05:23:41;97819.06;;;21.81;18.03
85151;BME280;75514;43.422;-80.500;2024-01-06T05:26:06;97816.27;;;21.57;18.03
85151;BME280;75514;43.422;-80.500;2024-01-06T05:28:32;97814.69;;;21.61;17.99
85151;BME280;75514;43.422;-80.500;2024-01-06T05:30:58;97811.45;;;21.77;18.20
85151;BME280;75514;43.422;-80.500;2024-01-06T05:33:23;97815.15;;;21.62;18.09
85151;BME280;75514;43.422;-80.500;2024-01-06T05:35:49;97807.16;;;21.34;18.16
85151;BME280;75514;43.422;-80.500;2024-01-06T05:38:15;97805.25;;;21.33;18.17
85151;BME280;75514;43.422;-80.500;2024-01-06T05:40:40;97798.59;;;21.60;18.17
85151;BME280;75514;43.422;-80.500;2024-01-06T05:43:06;97794.38;;;21.62;18.18
85151;BME280;75514;43.422;-80.500;2024-01-06T05:45:32;97796.19;;;21.39;18.18
85151;BME280;75514;43.422;-80.500;2024-01-06T05:47:57;97794.08;;;21.44;18.20
85151;BME280;75514;43.422;-80.500;2024-01-06T05:50:23;97789.22;;;21.63;18.21
85151;BME280;75514;43.422;-80.500;2024-01-06T05:52:49;97785.48;;;21.62;18.19
85151;BME280;75514;43.422;-80.500;2024-01-06T05:55:15;97787.77;;;21.55;18.27
85151;BME280;75514;43.422;-80.500;2024-01-06T05:57:40;97797.59;;;21.68;18.18
85151;BME280;75514;43.422;-80.500;2024-01-06T06:00:11;97795.35;;;21.65;18.19
85151;BME280;75514;43.422;-80.500;2024-01-06T06:02:32;97797.05;;;21.67;18.13
85151;BME280;75514;43.422;-80.500;2024-01-06T06:04:57;97799.81;;;21.66;18.14
85151;BME280;75514;43.422;-80.500;2024-01-06T06:07:23;97793.99;;;21.64;18.13
85151;BME280;75514;43.422;-80.500;2024-01-06T06:09:49;97798.58;;;21.65;18.10
85151;BME280;75514;43.422;-80.500;2024-01-06T06:12:15;97795.79;;;21.88;18.09
85151;BME280;75514;43.422;-80.500;2024-01-06T06:14:41;97794.69;;;21.68;18.09
85151;BME280;75514;43.422;-80.500;2024-01-06T06:17:06;97793.72;;;21.47;18.03
85151;BME280;75514;43.422;-80.500;2024-01-06T06:19:32;97790.12;;;21.45;18.04
85151;BME280;75514;43.422;-80.500;2024-01-06T06:21:58;97780.61;;;21.50;17.99
85151;BME280;75514;43.422;-80.500;2024-01-06T06:24:23;97776.87;;;21.49;18.00
85151;BME280;75514;43.422;-80.500;2024-01-06T06:26:49;97771.26;;;21.88;17.94
85151;BME280;75514;43.422;-80.500;2024-01-06T06:29:15;97772.70;;;21.79;17.99
85151;BME280;75514;43.422;-80.500;2024-01-06T06:31:41;97778.29;;;21.85;17.94
85151;BME280;75514;43.422;-80.500;2024-01-06T06:34:06;97774.28;;;21.79;17.99
85151;BME280;75514;43.422;-80.500;2024-01-06T06:36:32;97773.07;;;21.51;18.18
85151;BME280;75514;43.422;-80.500;2024-01-06T06:38:58;97771.63;;;21.47;18.19
85151;BME280;75514;43.422;-80.500;2024-01-06T06:41:23;97775.11;;;21.65;18.12
85151;BME280;75514;43.422;-80.500;2024-01-06T06:43:49;97775.51;;;21.67;18.13
85151;BME280;75514;43.422;-80.500;2024-01-06T06:46:15;97780.27;;;21.88;18.16
85151;BME280;75514;43.422;-80.500;2024-01-06T06:48:40;97782.51;;;21.67;18.15
85151;BME280;75514;43.422;-80.500;2024-01-06T06:51:06;97776.78;;;21.67;18.14
85151;BME280;75514;43.422;-80.500;2024-01-06T06:53:32;97777.05;;;21.89;18.18
85151;BME280;75514;43.422;-80.500;2024-01-06T06:55:58;97779.97;;;21.89;18.13
85151;BME280;75514;43.422;-80.500;2024-01-06T06:58:23;97780.29;;;21.91;18.13
85151;BME280;75514;43.422;-80.500;2024-01-06T07:00:49;97782.05;;;21.65;18.09
85151;BME280;75514;43.422;-80.500;2024-01-06T07:03:15;97782.87;;;21.98;18.05
85151;BME280;75514;43.422;-80.500;2024-01-06T07:05:41;97793.35;;;21.63;18.12
85151;BME280;75514;43.422;-80.500;2024-01-06T07:08:06;97789.27;;;21.68;18.10
85151;BME280;75514;43.422;-80.500;2024-01-06T07:10:32;97782.41;;;21.70;18.08
85151;BME280;75514;43.422;-80.500;2024-01-06T07:12:58;97776.87;;;21.41;18.11
85151;BME280;75514;43.422;-80.500;2024-01-06T07:15:24;97780.19;;;21.89;18.17
85151;BME280;75514;43.422;-80.500;2024-01-06T07:17:49;97778.39;;;21.84;18.22
85151;BME280;75514;43.422;-80.500;2024-01-06T07:20:15;97778.59;;;21.72;18.12
85151;BME280;75514;43.422;-80.500;2024-01-06T07:22:41;97779.14;;;21.83;18.02
85151;BME280;75514;43.422;-80.500;2024-01-06T07:25:07;97779.72;;;21.86;17.96
85151;BME280;75514;43.422;-80.500;2024-01-06T07:27:33;97774.83;;;21.71;18.09
85151;BME280;75514;43.422;-80.500;2024-01-06T07:29:58;97769.86;;;21.61;18.16
85151;BME280;75514;43.422;-80.500;2024-01-06T07:32:23;97772.75;;;21.49;18.23
85151;BME280;75514;43.422;-80.500;2024-01-06T07:34:49;97777.12;;;21.29;18.23
85151;BME280;75514;43.422;-80.500;2024-01-06T07:37:15;97782.15;;;21.59;18.16
85151;BME280;75514;43.422;-80.500;2024-01-06T07:39:41;97788.49;;;21.92;18.09
85151;BME280;75514;43.422;-80.500;2024-01-06T07:42:06;97790.01;;;21.43;18.10
85151;BME280;75514;43.422;-80.500;2024-01-06T07:44:33;97795.49;;;21.95;18.05
85151;BME280;75514;43.422;-80.500;2024-01-06T07:46:58;97810.63;;;21.72;18.02
85151;BME280;75514;43.422;-80.500;2024-01-06T07:49:24;97807.67;;;21.87;17.85
85151;BME280;75514;43.422;-80.500;2024-01-06T07:51:49;97800.38;;;22.12;17.84
85151;BME280;75514;43.422;-80.500;2024-01-06T07:54:15;97799.75;;;21.84;17.83
85151;BME280;75514;43.422;-80.500;2024-01-06T07:56:41;97803.13;;;21.44;17.93
85151;BME280;75514;43.422;-80.500;2024-01-06T07:59:06;97803.90;;;21.85;17.80
85151;BME280;75514;43.422;-80.500;2024-01-06T08:01:32;97805.90;;;21.59;18.08
85151;BME280;75514;43.422;-80.500;2024-01-06T08:03:59;97811.42;;;21.55;18.10
85151;BME280;75514;43.422;-80.500;2024-01-06T08:06:24;97817.16;;;21.60;18.10
85151;BME280;75514;43.422;-80.500;2024-01-06T08:08:49;97812.01;;;21.69;18.06
85151;BME280;75514;43.422;-80.500;2024-01-06T08:11:15;97801.68;;;21.90;18.08
85151;BME280;75514;43.422;-80.500;2024-01-06T08:13:40;97791.84;;;21.63;18.10
85151;BME280;75514;43.422;-80.500;2024-01-06T08:16:06;97785.18;;;21.89;18.10
85151;BME280;75514;43.422;-80.500;2024-01-06T08:18:32;97772.92;;;21.88;18.12
85151;BME280;75514;43.422;-80.500;2024-01-06T08:20:58;97760.85;;;21.62;18.13
85151;BME280;75514;43.422;-80.500;2024-01-06T08:23:23;97749.93;;;21.65;18.12
85151;BME280;75514;43.422;-80.500;2024-01-06T08:25:49;97738.07;;;21.59;18.18
85151;BME280;75514;43.422;-80.500;2024-01-06T08:28:15;97736.44;;;21.34;18.25
85151;BME280;75514;43.422;-80.500;2024-01-06T08:30:41;97738.68;;;21.69;18.21
85151;BME280;75514;43.422;-80.500;2024-01-06T08:33:06;97743.39;;;21.90;18.15
85151;BME280;75514;43.422;-80.500;2024-01-06T08:35:32;97747.82;;;21.76;18.00
85151;BME280;75514;43.422;-80.500;2024-01-06T08:37:58;97747.93;;;21.74;17.97
85151;BME280;75514;43.422;-80.500;2024-01-06T08:40:24;97743.16;;;21.45;18.02
85151;BME280;75514;43.422;-80.500;2024-01-06T08:42:50;97737.98;;;21.97;17.93
85151;BME280;75514;43.422;-80.500;2024-01-06T08:45:15;97731.73;;;21.47;17.98
85151;BME280;75514;43.422;-80.500;2024-01-06T08:47:41;97729.24;;;21.64;18.00
85151;BME280;75514;43.422;-80.500;2024-01-06T08:50:07;97730.67;;;21.65;18.08
85151;BME280;75514;43.422;-80.500;2024-01-06T08:52:31;97736.17;;;21.91;18.04
85151;BME280;75514;43.422;-80.500;2024-01-06T08:54:57;97743.91;;;21.46;18.01
85151;BME280;75514;43.422;-80.500;2024-01-06T08:57:23;97751.01;;;21.67;18.02
85151;BME280;75514;43.422;-80.500;2024-01-06T08:59:49;97755.87;;;21.68;18.01
85151;BME280;75514;43.422;-80.500;2024-01-06T09:02:14;97751.54;;;21.76;17.91
85151;BME280;75514;43.422;-80.500;2024-01-06T09:04:40;97737.83;;;21.94;17.94
85151;BME280;75514;43.422;-80.500;2024-01-06T09:07:06;97729.67;;;21.72;17.90
85151;BME280;75514;43.422;-80.500;2024-01-06T09:09:31;97722.77;;;21.72;17.89
85151;BME280;75514;43.422;-80.500;2024-01-06T09:11:57;97713.14;;;21.92;17.91
85151;BME280;75514;43.422;-80.500;2024-01-06T09:14:22;97702.44;;;21.68;17.85
85151;BME280;75514;43.422;-80.500;2024-01-06T09:16:48;97695.26;;;21.70;17.86
85151;BME280;75514;43.422;-80.500;2024-01-06T09:19:13;97692.22;;;21.69;17.87
85151;BME280;75514;43.422;-80.500;2024-01-06T09:21:39;97696.53;;;21.51;17.80
85151;BME280;75514;43.422;-80.500;2024-01-06T09:24:05;97692.21;;;22.08;17.69
85151;BME280;75514;43.422;-80.500;2024-01-06T09:26:31;97672.83;;;21.57;17.64
85151;BME280;75514;43.422;-80.500;2024-01-06T09:28:58;97664.66;;;21.75;17.70
85151;BME280;75514;43.422;-80.500;2024-01-06T09:31:22;97660.40;;;21.39;17.74
85151;BME280;75514;43.422;-80.500;2024-01-06T09:33:48;97647.94;;;21.66;17.72
85151;BME280;75514;43.422;-80.500;2024-01-06T09:36:14;97630.91;;;21.63;17.77
85151;BME280;75514;43.422;-80.500;2024-01-06T09:38:39;97611.56;;;21.54;17.90
85151;BME280;75514;43.422;-80.500;2024-01-06T09:41:05;97606.28;;;21.60;17.86
85151;BME280;75514;43.422;-80.500;2024-01-06T09:43:31;97606.65;;;21.83;17.87
85151;BME280;75514;43.422;-80.500;2024-01-06T09:46:06;97605.61;;;21.84;17.86
85151;BME280;75514;43.422;-80.500;2024-01-06T09:48:23;97607.10;;;21.61;17.86
85151;BME280;75514;43.422;-80.500;2024-01-06T09:50:49;97603.79;;;21.58;17.86
85151;BME280;75514;43.422;-80.500;2024-01-06T09:53:16;97590.61;;;21.61;17.81
85151;BME280;75514;43.422;-80.500;2024-01-06T09:55:39;97590.77;;;21.68;17.71
85151;BME280;75514;43.422;-80.500;2024-01-06T09:58:05;97603.05;;;21.84;17.73
85151;BME280;75514;43.422;-80.500;2024-01-06T10:00:31;97613.15;;;21.51;17.78
85151;BME280;75514;43.422;-80.500;2024-01-06T10:02:56;97619.41;;;21.31;17.94
85151;BME280;75514;43.422;-80.500;2024-01-06T10:05:22;97608.59;;;21.36;17.88
85151;BME280;75514;43.422;-80.500;2024-01-06T10:07:48;97601.73;;;21.50;17.81
85151;BME280;75514;43.422;-80.500;2024-01-06T10:10:14;97600.94;;;21.61;17.69
85151;BME280;75514;43.422;-80.500;2024-01-06T10:12:40;97603.20;;;21.60;17.69
85151;BME280;75514;43.422;-80.500;2024-01-06T10:15:06;97604.51;;;21.60;17.68
85151;BME280;75514;43.422;-80.500;2024-01-06T10:17:31;97606.38;;;21.84;17.65
85151;BME280;75514;43.422;-80.500;2024-01-06T10:19:56;97601.06;;;21.69;17.59
85151;BME280;75514;43.422;-80.500;2024-01-06T10:22:22;97598.72;;;21.82;17.47
85151;BME280;75514;43.422;-80.500;2024-01-06T10:24:47;97606.14;;;21.40;17.56
85151;BME280;75514;43.422;-80.500;2024-01-06T10:27:13;97605.53;;;21.69;17.52
85151;BME280;75514;43.422;-80.500;2024-01-06T10:29:39;97609.06;;;21.40;17.72
85151;BME280;75514;43.422;-80.500;2024-01-06T10:32:05;97603.42;;;21.50;17.69
85151;BME280;75514;43.422;-80.500;2024-01-06T10:34:30;97614.17;;;21.40;17.75
85151;BME280;75514;43.422;-80.500;2024-01-06T10:36:57;97624.94;;;21.43;17.75
85151;BME280;75514;43.422;-80.500;2024-01-06T10:39:21;97611.74;;;21.79;17.68
85151;BME280;75514;43.422;-80.500;2024-01-06T10:41:49;97599.03;;;21.78;17.69
85151;BME280;75514;43.422;-80.500;2024-01-06T10:44:13;97585.40;;;21.56;17.70
85151;BME280;75514;43.422;-80.500;2024-01-06T10:46:39;97577.38;;;21.87;17.70
85151;BME280;75514;43.422;-80.500;2024-01-06T10:49:05;97571.81;;;21.66;17.87
85151;BME280;75514;43.422;-80.500;2024-01-06T10:51:30;97560.29;;;21.62;17.92
85151;BME280;75514;43.422;-80.500;2024-01-06T10:53:58;97547.98;;;21.64;17.86
85151;BME280;75514;43.422;-80.500;2024-01-06T10:56:23;97557.01;;;21.64;17.83
85151;BME280;75514;43.422;-80.500;2024-01-06T10:58:48;97554.51;;;21.32;17.92
85151;BME280;75514;43.422;-80.500;2024-01-06T11:01:13;97551.68;;;21.38;17.89
85151;BME280;75514;43.422;-80.500;2024-01-06T11:03:39;97537.53;;;21.81;17.91
85151;BME280;75514;43.422;-80.500;2024-01-06T11:06:05;97528.00;;;21.34;17.90
85151;BME280;75514;43.422;-80.500;2024-01-06T11:08:32;97511.95;;;21.65;17.83
85151;BME280;75514;43.422;-80.500;2024-01-06T11:10:56;97500.89;;;21.60;17.85
85151;BME280;75514;43.422;-80.500;2024-01-06T11:13:23;97495.81;;;21.32;17.89
85151;BME280;75514;43.422;-80.500;2024-01-06T11:15:49;97497.50;;;21.58;17.88
85151;BME280;75514;43.422;-80.500;2024-01-06T11:20:38;97506.56;;;21.56;17.86
85151;BME280;75514;43.422;-80.500;2024-01-06T11:23:17;97508.72;;;21.61;17.81
85151;BME280;75514;43.422;-80.500;2024-01-06T11:25:30;97515.32;;;21.88;17.81
85151;BME280;75514;43.422;-80.500;2024-01-06T11:27:56;97536.48;;;21.44;17.78
85151;BME280;75514;43.422;-80.500;2024-01-06T11:30:22;97551.12;;;21.67;17.79
85151;BME280;75514;43.422;-80.500;2024-01-06T11:32:47;97546.57;;;21.69;17.75
85151;BME280;75514;43.422;-80.500;2024-01-06T11:35:14;97537.69;;;21.41;17.77
85151;BME280;75514;43.422;-80.500;2024-01-06T11:40:09;97547.74;;;21.67;17.74
85151;BME280;75514;43.422;-80.500;2024-01-06T11:42:33;97558.78;;;21.67;17.73
85151;BME280;75514;43.422;-80.500;2024-01-06T11:45:01;97553.82;;;21.71;17.71
85151;BME280;75514;43.422;-80.500;2024-01-06T11:47:21;97543.54;;;21.72;17.70
85151;BME280;75514;43.422;-80.500;2024-01-06T11:49:48;97526.52;;;21.73;17.66
85151;BME280;75514;43.422;-80.500;2024-01-06T11:52:13;97523.16;;;21.68;17.68
85151;BME280;75514;43.422;-80.500;2024-01-06T11:54:38;97519.44;;;21.48;17.66
85151;BME280;75514;43.422;-80.500;2024-01-06T11:57:04;97515.73;;;21.78;17.60
85151;BME280;75514;43.422;-80.500;2024-01-06T11:59:30;97517.20;;;21.74;17.60
85151;BME280;75514;43.422;-80.500;2024-01-06T12:01:55;97531.61;;;21.75;17.59
85151;BME280;75514;43.422;-80.500;2024-01-06T12:04:21;97534.37;;;21.53;17.59
85151;BME280;75514;43.422;-80.500;2024-01-06T12:06:47;97525.20;;;21.79;17.60
85151;BME280;75514;43.422;-80.500;2024-01-06T12:09:13;97513.05;;;21.75;17.62
85151;BME280;75514;43.422;-80.500;2024-01-06T12:11:38;97508.84;;;21.49;17.63
85151;BME280;75514;43.422;-80.500;2024-01-06T12:14:03;97508.64;;;21.78;17.59
85151;BME280;75514;43.422;-80.500;2024-01-06T12:16:29;97500.75;;;21.82;17.55
85151;BME280;75514;43.422;-80.500;2024-01-06T12:18:55;97494.42;;;21.58;17.50
85151;BME280;75514;43.422;-80.500;2024-01-06T12:21:20;97486.92;;;21.80;17.54
85151;BME280;75514;43.422;-80.500;2024-01-06T12:23:46;97481.37;;;21.61;17.71
85151;BME280;75514;43.422;-80.500;2024-01-06T12:26:11;97476.62;;;21.57;17.77
85151;BME280;75514;43.422;-80.500;2024-01-06T12:28:37;97473.43;;;21.45;17.69
85151;BME280;75514;43.422;-80.500;2024-01-06T12:31:09;97467.48;;;21.86;17.74
85151;BME280;75514;43.422;-80.500;2024-01-06T12:33:28;97465.91;;;21.61;17.86
85151;BME280;75514;43.422;-80.500;2024-01-06T12:35:54;97476.94;;;21.66;18.01